sensor_id;sensor_type;location;lat;lon;timestamp;P1;durP1;ratioP1;P2;durP2;ratioP2
73397;SDS011;63606;52.328;20.964;2022-10-17T00:00:41;20.58;;;11.95;;
73397;SDS011;63606;52.328;20.964;2022-10-17T00:03:06;22.73;;;13.23;;
73397;SDS011;63606;52.328;20.964;2022-10-17T00:05:33;21.10;;;11.50;;
73397;SDS011;63606;52.328;20.964;2022-10-17T00:07:58;21.02;;;12.82;;
73397;SDS011;63606;52.328;20.964;2022-10-17T00:10:24;24.52;;;12.95;;
73397;SDS011;63606;52.328;20.964;2022-10-17T00:12:50;22.45;;;13.32;;
73397;SDS011;63606;52.328;20.964;2022-10-17T00:15:17;26.05;;;14.02;;
73397;SDS011;63606;52.328;20.964;2022-10-17T00:17:44;42.58;;;14.30;;
73397;SDS011;63606;52.328;20.964;2022-10-17T00:20:10;22.92;;;12.90;;
73397;SDS011;63606;52.328;20.964;2022-10-17T00:22:36;30.65;;;13.77;;
73397;SDS011;63606;52.328;20.964;2022-10-17T00:25:01;25.45;;;12.68;;
73397;SDS011;63606;52.328;20.964;2022-10-17T00:27:27;23.38;;;12.77;;
73397;SDS011;63606;52.328;20.964;2022-10-17T00:29:53;22.20;;;12.38;;
73397;SDS011;63606;52.328;20.964;2022-10-17T00:32:18;21.88;;;13.23;;
73397;SDS011;63606;52.328;20.964;2022-10-17T00:34:44;21.88;;;12.95;;
73397;SDS011;63606;52.328;20.964;2022-10-17T00:37:10;21.27;;;13.00;;
73397;SDS011;63606;52.328;20.964;2022-10-17T00:39:36;22.27;;;13.13;;
73397;SDS011;63606;52.328;20.964;2022-10-17T00:42:02;21.33;;;12.23;;
73397;SDS011;63606;52.328;20.964;2022-10-17T00:46:53;23.75;;;13.48;;
73397;SDS011;63606;52.328;20.964;2022-10-17T00:49:20;24.02;;;13.73;;
73397;SDS011;63606;52.328;20.964;2022-10-17T00:51:49;19.80;;;12.63;;
73397;SDS011;63606;52.328;20.964;2022-10-17T00:54:20;24.98;;;13.50;;
73397;SDS011;63606;52.328;20.964;2022-10-17T00:56:49;24.55;;;13.75;;
73397;SDS011;63606;52.328;20.964;2022-10-17T00:59:15;25.15;;;14.65;;
73397;SDS011;63606;52.328;20.964;2022-10-17T01:04:15;23.77;;;13.52;;
73397;SDS011;63606;52.328;20.964;2022-10-17T01:06:42;24.13;;;13.68;;
73397;SDS011;63606;52.328;20.964;2022-10-17T01:09:07;23.02;;;12.38;;
73397;SDS011;63606;52.328;20.964;2022-10-17T01:11:38;23.55;;;13.35;;
73397;SDS011;63606;52.328;20.964;2022-10-17T01:22:22;22.20;;;12.25;;
73397;SDS011;63606;52.328;20.964;2022-10-17T01:30:55;23.80;;;11.77;;
73397;SDS011;63606;52.328;20.964;2022-10-17T01:36:11;23.33;;;13.35;;
73397;SDS011;63606;52.328;20.964;2022-10-17T01:38:53;24.13;;;13.82;;
73397;SDS011;63606;52.328;20.964;2022-10-17T01:46:57;21.42;;;11.82;;
73397;SDS011;63606;52.328;20.964;2022-10-17T01:49:28;21.65;;;12.68;;
73397;SDS011;63606;52.328;20.964;2022-10-17T01:52:06;23.73;;;13.68;;
73397;SDS011;63606;52.328;20.964;2022-10-17T01:54:57;22.23;;;12.90;;
73397;SDS011;63606;52.328;20.964;2022-10-17T01:57:33;23.48;;;13.32;;
73397;SDS011;63606;52.328;20.964;2022-10-17T02:00:03;22.58;;;12.65;;
73397;SDS011;63606;52.328;20.964;2022-10-17T02:02:32;20.67;;;12.80;;
73397;SDS011;63606;52.328;20.964;2022-10-17T02:05:00;21.38;;;12.57;;
73397;SDS011;63606;52.328;20.964;2022-10-17T02:07:28;25.15;;;13.43;;
73397;SDS011;63606;52.328;20.964;2022-10-17T02:09:54;23.13;;;13.75;;
73397;SDS011;63606;52.328;20.964;2022-10-17T02:15:17;22.60;;;12.43;;
73397;SDS011;63606;52.328;20.964;2022-10-17T02:18:02;22.67;;;12.88;;
73397;SDS011;63606;52.328;20.964;2022-10-17T02:23:11;23.83;;;13.38;;
73397;SDS011;63606;52.328;20.964;2022-10-17T02:29:27;21.92;;;12.48;;
73397;SDS011;63606;52.328;20.964;2022-10-17T02:31:56;18.90;;;12.35;;
73397;SDS011;63606;52.328;20.964;2022-10-17T02:34:38;22.25;;;12.70;;
73397;SDS011;63606;52.328;20.964;2022-10-17T02:37:07;23.63;;;13.50;;
73397;SDS011;63606;52.328;20.964;2022-10-17T02:39:35;20.95;;;12.35;;
73397;SDS011;63606;52.328;20.964;2022-10-17T02:42:05;22.83;;;12.93;;
73397;SDS011;63606;52.328;20.964;2022-10-17T02:44:33;25.08;;;13.52;;
73397;SDS011;63606;52.328;20.964;2022-10-17T02:50:08;23.20;;;12.63;;
73397;SDS011;63606;52.328;20.964;2022-10-17T02:53:19;20.17;;;12.18;;
73397;SDS011;63606;52.328;20.964;2022-10-17T02:55:31;21.05;;;12.43;;
73397;SDS011;63606;52.328;20.964;2022-10-17T02:58:05;20.08;;;13.02;;
73397;SDS011;63606;52.328;20.964;2022-10-17T03:00:37;20.65;;;13.35;;
73397;SDS011;63606;52.328;20.964;2022-10-17T03:03:17;24.17;;;13.85;;
73397;SDS011;63606;52.328;20.964;2022-10-17T03:05:47;23.08;;;12.90;;
73397;SDS011;63606;52.328;20.964;2022-10-17T03:08:13;25.85;;;14.20;;
73397;SDS011;63606;52.328;20.964;2022-10-17T03:10:38;22.52;;;12.07;;
73397;SDS011;63606;52.328;20.964;2022-10-17T03:13:04;24.88;;;12.98;;
73397;SDS011;63606;52.328;20.964;2022-10-17T03:15:29;23.00;;;14.00;;
73397;SDS011;63606;52.328;20.964;2022-10-17T03:17:55;20.80;;;12.05;;
73397;SDS011;63606;52.328;20.964;2022-10-17T03:20:20;27.17;;;14.98;;
73397;SDS011;63606;52.328;20.964;2022-10-17T03:22:46;25.05;;;14.32;;
73397;SDS011;63606;52.328;20.964;2022-10-17T03:25:11;25.10;;;14.65;;
73397;SDS011;63606;52.328;20.964;2022-10-17T03:27:37;26.25;;;15.55;;
73397;SDS011;63606;52.328;20.964;2022-10-17T03:30:02;26.60;;;14.40;;
73397;SDS011;63606;52.328;20.964;2022-10-17T03:32:28;28.38;;;14.70;;
73397;SDS011;63606;52.328;20.964;2022-10-17T03:34:54;32.45;;;17.20;;
73397;SDS011;63606;52.328;20.964;2022-10-17T03:37:19;26.05;;;15.63;;
73397;SDS011;63606;52.328;20.964;2022-10-17T03:39:44;30.70;;;16.77;;
73397;SDS011;63606;52.328;20.964;2022-10-17T03:42:10;43.45;;;19.30;;
73397;SDS011;63606;52.328;20.964;2022-10-17T03:44:35;27.92;;;16.45;;
73397;SDS011;63606;52.328;20.964;2022-10-17T03:47:01;36.75;;;18.10;;
73397;SDS011;63606;52.328;20.964;2022-10-17T03:49:27;31.80;;;17.63;;
73397;SDS011;63606;52.328;20.964;2022-10-17T03:51:52;33.00;;;16.77;;
73397;SDS011;63606;52.328;20.964;2022-10-17T03:54:17;28.63;;;17.35;;
73397;SDS011;63606;52.328;20.964;2022-10-17T03:56:43;30.10;;;16.15;;
73397;SDS011;63606;52.328;20.964;2022-10-17T03:59:11;30.48;;;16.75;;
73397;SDS011;63606;52.328;20.964;2022-10-17T04:01:38;29.35;;;15.95;;
73397;SDS011;63606;52.328;20.964;2022-10-17T04:04:04;31.08;;;15.85;;
73397;SDS011;63606;52.328;20.964;2022-10-17T04:06:29;30.17;;;15.00;;
73397;SDS011;63606;52.328;20.964;2022-10-17T04:08:55;30.30;;;17.45;;
73397;SDS011;63606;52.328;20.964;2022-10-17T04:11:21;28.20;;;15.52;;
73397;SDS011;63606;52.328;20.964;2022-10-17T04:13:47;29.63;;;16.35;;
73397;SDS011;63606;52.328;20.964;2022-10-17T04:16:17;30.50;;;16.08;;
73397;SDS011;63606;52.328;20.964;2022-10-17T04:18:43;30.30;;;16.88;;
73397;SDS011;63606;52.328;20.964;2022-10-17T04:21:09;29.58;;;16.13;;
73397;SDS011;63606;52.328;20.964;2022-10-17T04:23:35;28.35;;;16.42;;
73397;SDS011;63606;52.328;20.964;2022-10-17T04:26:01;27.08;;;15.85;;
73397;SDS011;63606;52.328;20.964;2022-10-17T04:28:28;28.02;;;16.27;;
73397;SDS011;63606;52.328;20.964;2022-10-17T04:30:58;28.27;;;15.48;;
73397;SDS011;63606;52.328;20.964;2022-10-17T04:33:35;30.15;;;16.35;;
73397;SDS011;63606;52.328;20.964;2022-10-17T04:36:05;32.28;;;17.23;;
73397;SDS011;63606;52.328;20.964;2022-10-17T04:38:33;26.23;;;15.60;;
73397;SDS011;63606;52.328;20.964;2022-10-17T04:40:59;25.60;;;14.35;;
73397;SDS011;63606;52.328;20.964;2022-10-17T04:43:27;28.58;;;16.00;;
73397;SDS011;63606;52.328;20.964;2022-10-17T04:45:53;27.88;;;15.00;;
73397;SDS011;63606;52.328;20.964;2022-10-17T04:48:21;26.77;;;15.65;;
73397;SDS011;63606;52.328;20.964;2022-10-17T04:51:00;29.02;;;16.90;;
73397;SDS011;63606;52.328;20.964;2022-10-17T04:53:29;33.03;;;17.10;;
73397;SDS011;63606;52.328;20.964;2022-10-17T04:55:56;28.85;;;16.65;;
73397;SDS011;63606;52.328;20.964;2022-10-17T04:58:22;31.20;;;16.17;;
73397;SDS011;63606;52.328;20.964;2022-10-17T05:00:47;32.42;;;16.50;;
73397;SDS011;63606;52.328;20.964;2022-10-17T05:03:13;29.27;;;16.48;;
73397;SDS011;63606;52.328;20.964;2022-10-17T05:05:39;29.23;;;15.45;;
73397;SDS011;63606;52.328;20.964;2022-10-17T05:08:06;28.00;;;15.32;;
73397;SDS011;63606;52.328;20.964;2022-10-17T05:10:39;28.73;;;15.80;;
73397;SDS011;63606;52.328;20.964;2022-10-17T05:13:06;31.73;;;16.65;;
73397;SDS011;63606;52.328;20.964;2022-10-17T05:15:33;29.10;;;17.00;;
73397;SDS011;63606;52.328;20.964;2022-10-17T05:17:59;33.05;;;17.83;;
73397;SDS011;63606;52.328;20.964;2022-10-17T05:20:25;29.63;;;17.15;;
73397;SDS011;63606;52.328;20.964;2022-10-17T05:22:51;33.08;;;17.80;;
73397;SDS011;63606;52.328;20.964;2022-10-17T05:25:16;30.23;;;16.98;;
73397;SDS011;63606;52.328;20.964;2022-10-17T05:27:42;31.38;;;16.10;;
73397;SDS011;63606;52.328;20.964;2022-10-17T05:30:08;27.33;;;15.32;;
73397;SDS011;63606;52.328;20.964;2022-10-17T05:32:34;29.23;;;15.98;;
73397;SDS011;63606;52.328;20.964;2022-10-17T05:34:59;32.03;;;17.10;;
73397;SDS011;63606;52.328;20.964;2022-10-17T05:37:25;32.78;;;18.25;;
73397;SDS011;63606;52.328;20.964;2022-10-17T05:39:53;28.10;;;17.10;;
73397;SDS011;63606;52.328;20.964;2022-10-17T05:42:18;32.65;;;17.65;;
73397;SDS011;63606;52.328;20.964;2022-10-17T05:44:44;33.42;;;17.73;;
73397;SDS011;63606;52.328;20.964;2022-10-17T05:47:09;26.88;;;16.13;;
73397;SDS011;63606;52.328;20.964;2022-10-17T05:49:35;35.70;;;18.35;;
73397;SDS011;63606;52.328;20.964;2022-10-17T05:52:00;31.25;;;16.95;;
73397;SDS011;63606;52.328;20.964;2022-10-17T05:54:26;32.53;;;18.48;;
73397;SDS011;63606;52.328;20.964;2022-10-17T05:56:52;43.05;;;18.50;;
73397;SDS011;63606;52.328;20.964;2022-10-17T05:59:19;32.35;;;18.02;;
73397;SDS011;63606;52.328;20.964;2022-10-17T06:01:44;36.72;;;18.75;;
73397;SDS011;63606;52.328;20.964;2022-10-17T06:04:10;37.10;;;20.65;;
73397;SDS011;63606;52.328;20.964;2022-10-17T06:06:36;31.38;;;16.95;;
73397;SDS011;63606;52.328;20.964;2022-10-17T06:09:03;32.33;;;18.80;;
73397;SDS011;63606;52.328;20.964;2022-10-17T06:11:29;36.95;;;19.10;;
73397;SDS011;63606;52.328;20.964;2022-10-17T06:13:55;36.55;;;18.63;;
73397;SDS011;63606;52.328;20.964;2022-10-17T06:16:21;33.53;;;18.38;;
73397;SDS011;63606;52.328;20.964;2022-10-17T06:18:47;36.05;;;18.17;;
73397;SDS011;63606;52.328;20.964;2022-10-17T06:21:13;41.17;;;20.52;;
73397;SDS011;63606;52.328;20.964;2022-10-17T06:23:41;40.67;;;21.33;;
73397;SDS011;63606;52.328;20.964;2022-10-17T06:26:06;41.67;;;20.77;;
73397;SDS011;63606;52.328;20.964;2022-10-17T06:28:33;48.50;;;21.95;;
73397;SDS011;63606;52.328;20.964;2022-10-17T06:31:02;37.95;;;19.33;;
73397;SDS011;63606;52.328;20.964;2022-10-17T06:33:38;38.78;;;19.27;;
73397;SDS011;63606;52.328;20.964;2022-10-17T06:36:04;43.22;;;20.80;;
73397;SDS011;63606;52.328;20.964;2022-10-17T06:38:32;36.97;;;18.95;;
73397;SDS011;63606;52.328;20.964;2022-10-17T06:41:06;43.65;;;20.55;;
73397;SDS011;63606;52.328;20.964;2022-10-17T06:43:37;41.97;;;22.23;;
73397;SDS011;63606;52.328;20.964;2022-10-17T06:46:04;45.33;;;21.48;;
73397;SDS011;63606;52.328;20.964;2022-10-17T06:48:30;40.70;;;22.77;;
73397;SDS011;63606;52.328;20.964;2022-10-17T06:51:00;48.58;;;23.17;;
73397;SDS011;63606;52.328;20.964;2022-10-17T06:53:27;40.60;;;23.27;;
73397;SDS011;63606;52.328;20.964;2022-10-17T06:55:53;45.20;;;23.45;;
73397;SDS011;63606;52.328;20.964;2022-10-17T07:00:47;43.15;;;19.67;;
73397;SDS011;63606;52.328;20.964;2022-10-17T07:03:13;43.67;;;21.58;;
73397;SDS011;63606;52.328;20.964;2022-10-17T07:05:38;43.33;;;21.27;;
73397;SDS011;63606;52.328;20.964;2022-10-17T07:08:04;37.80;;;20.80;;
73397;SDS011;63606;52.328;20.964;2022-10-17T07:10:30;46.00;;;21.33;;
73397;SDS011;63606;52.328;20.964;2022-10-17T07:12:55;41.17;;;21.58;;
73397;SDS011;63606;52.328;20.964;2022-10-17T07:15:21;40.13;;;20.15;;
73397;SDS011;63606;52.328;20.964;2022-10-17T07:17:47;42.13;;;21.88;;
73397;SDS011;63606;52.328;20.964;2022-10-17T07:20:14;38.63;;;19.05;;
73397;SDS011;63606;52.328;20.964;2022-10-17T07:22:40;38.08;;;20.95;;
73397;SDS011;63606;52.328;20.964;2022-10-17T07:25:06;35.58;;;19.77;;
73397;SDS011;63606;52.328;20.964;2022-10-17T07:27:32;34.78;;;19.50;;
73397;SDS011;63606;52.328;20.964;2022-10-17T07:29:58;36.65;;;18.15;;
73397;SDS011;63606;52.328;20.964;2022-10-17T07:32:23;32.67;;;18.92;;
73397;SDS011;63606;52.328;20.964;2022-10-17T07:34:49;34.53;;;19.70;;
73397;SDS011;63606;52.328;20.964;2022-10-17T07:37:14;34.42;;;18.23;;
73397;SDS011;63606;52.328;20.964;2022-10-17T07:39:40;34.47;;;18.60;;
73397;SDS011;63606;52.328;20.964;2022-10-17T07:42:06;35.83;;;19.02;;
73397;SDS011;63606;52.328;20.964;2022-10-17T07:44:31;34.75;;;18.42;;
73397;SDS011;63606;52.328;20.964;2022-10-17T07:46:57;34.10;;;19.23;;
73397;SDS011;63606;52.328;20.964;2022-10-17T07:49:23;33.88;;;18.50;;
73397;SDS011;63606;52.328;20.964;2022-10-17T07:51:48;38.42;;;19.10;;
73397;SDS011;63606;52.328;20.964;2022-10-17T07:54:14;30.50;;;17.63;;
73397;SDS011;63606;52.328;20.964;2022-10-17T07:56:39;33.55;;;19.25;;
73397;SDS011;63606;52.328;20.964;2022-10-17T07:59:05;31.00;;;18.58;;
73397;SDS011;63606;52.328;20.964;2022-10-17T08:01:30;32.08;;;17.98;;
73397;SDS011;63606;52.328;20.964;2022-10-17T08:03:56;36.42;;;17.77;;
73397;SDS011;63606;52.328;20.964;2022-10-17T08:06:22;31.67;;;17.40;;
73397;SDS011;63606;52.328;20.964;2022-10-17T08:08:47;33.17;;;18.65;;
73397;SDS011;63606;52.328;20.964;2022-10-17T08:11:13;32.03;;;18.50;;
73397;SDS011;63606;52.328;20.964;2022-10-17T08:13:39;30.13;;;17.60;;
73397;SDS011;63606;52.328;20.964;2022-10-17T08:16:07;30.02;;;17.00;;
73397;SDS011;63606;52.328;20.964;2022-10-17T08:21:01;30.65;;;14.60;;
73397;SDS011;63606;52.328;20.964;2022-10-17T08:23:30;29.23;;;16.95;;
73397;SDS011;63606;52.328;20.964;2022-10-17T08:25:59;36.25;;;18.73;;
73397;SDS011;63606;52.328;20.964;2022-10-17T08:28:26;35.35;;;16.67;;
73397;SDS011;63606;52.328;20.964;2022-10-17T08:30:52;37.58;;;16.67;;
73397;SDS011;63606;52.328;20.964;2022-10-17T08:33:17;32.05;;;17.48;;
73397;SDS011;63606;52.328;20.964;2022-10-17T08:35:43;35.50;;;16.73;;
73397;SDS011;63606;52.328;20.964;2022-10-17T08:38:08;28.38;;;15.07;;
73397;SDS011;63606;52.328;20.964;2022-10-17T08:40:34;33.22;;;16.48;;
73397;SDS011;63606;52.328;20.964;2022-10-17T08:45:53;34.50;;;18.02;;
73397;SDS011;63606;52.328;20.964;2022-10-17T08:48:27;31.95;;;17.83;;
73397;SDS011;63606;52.328;20.964;2022-10-17T08:53:26;34.05;;;20.83;;
73397;SDS011;63606;52.328;20.964;2022-10-17T08:55:53;35.20;;;18.95;;
73397;SDS011;63606;52.328;20.964;2022-10-17T08:58:23;32.70;;;17.85;;
73397;SDS011;63606;52.328;20.964;2022-10-17T09:12:21;27.58;;;15.70;;
73397;SDS011;63606;52.328;20.964;2022-10-17T09:15:09;27.05;;;15.70;;
73397;SDS011;63606;52.328;20.964;2022-10-17T09:18:06;28.85;;;16.42;;
73397;SDS011;63606;52.328;20.964;2022-10-17T09:20:54;27.65;;;16.98;;
73397;SDS011;63606;52.328;20.964;2022-10-17T09:23:26;28.77;;;15.98;;
73397;SDS011;63606;52.328;20.964;2022-10-17T09:26:00;27.00;;;16.63;;
73397;SDS011;63606;52.328;20.964;2022-10-17T09:28:30;30.40;;;17.13;;
73397;SDS011;63606;52.328;20.964;2022-10-17T09:33:42;26.88;;;16.13;;
73397;SDS011;63606;52.328;20.964;2022-10-17T09:36:12;30.52;;;17.15;;
73397;SDS011;63606;52.328;20.964;2022-10-17T09:38:40;32.80;;;18.67;;
73397;SDS011;63606;52.328;20.964;2022-10-17T09:41:25;29.65;;;17.88;;
73397;SDS011;63606;52.328;20.964;2022-10-17T09:43:58;25.90;;;16.50;;
73397;SDS011;63606;52.328;20.964;2022-10-17T09:49:43;28.83;;;18.77;;
73397;SDS011;63606;52.328;20.964;2022-10-17T09:52:20;32.47;;;18.05;;
73397;SDS011;63606;52.328;20.964;2022-10-17T09:54:52;28.67;;;17.25;;
73397;SDS011;63606;52.328;20.964;2022-10-17T09:57:18;29.15;;;16.90;;
73397;SDS011;63606;52.328;20.964;2022-10-17T09:59:46;27.70;;;16.17;;
73397;SDS011;63606;52.328;20.964;2022-10-17T10:02:22;24.52;;;15.88;;
73397;SDS011;63606;52.328;20.964;2022-10-17T10:04:59;28.10;;;16.55;;
73397;SDS011;63606;52.328;20.964;2022-10-17T10:07:40;26.83;;;15.98;;
73397;SDS011;63606;52.328;20.964;2022-10-17T10:15:49;24.60;;;14.00;;
73397;SDS011;63606;52.328;20.964;2022-10-17T10:23:36;23.77;;;13.48;;
73397;SDS011;63606;52.328;20.964;2022-10-17T10:26:19;20.13;;;12.57;;
73397;SDS011;63606;52.328;20.964;2022-10-17T10:28:53;22.63;;;13.48;;
73397;SDS011;63606;52.328;20.964;2022-10-17T10:31:32;21.08;;;13.40;;
73397;SDS011;63606;52.328;20.964;2022-10-17T10:34:00;22.50;;;13.02;;
73397;SDS011;63606;52.328;20.964;2022-10-17T10:36:44;25.45;;;13.30;;
73397;SDS011;63606;52.328;20.964;2022-10-17T10:39:24;18.42;;;12.38;;
73397;SDS011;63606;52.328;20.964;2022-10-17T10:41:50;20.38;;;13.68;;
73397;SDS011;63606;52.328;20.964;2022-10-17T10:44:16;20.00;;;13.20;;
73397;SDS011;63606;52.328;20.964;2022-10-17T10:46:45;22.23;;;14.38;;
73397;SDS011;63606;52.328;20.964;2022-10-17T10:49:27;19.98;;;12.65;;
73397;SDS011;63606;52.328;20.964;2022-10-17T10:51:55;21.88;;;12.95;;
73397;SDS011;63606;52.328;20.964;2022-10-17T10:54:27;23.20;;;14.60;;
73397;SDS011;63606;52.328;20.964;2022-10-17T10:56:57;19.98;;;13.20;;
73397;SDS011;63606;52.328;20.964;2022-10-17T10:59:32;20.38;;;12.90;;
73397;SDS011;63606;52.328;20.964;2022-10-17T11:02:14;21.38;;;12.60;;
73397;SDS011;63606;52.328;20.964;2022-10-17T11:05:03;20.23;;;12.90;;
73397;SDS011;63606;52.328;20.964;2022-10-17T11:10:15;16.75;;;11.18;;
73397;SDS011;63606;52.328;20.964;2022-10-17T11:12:49;17.63;;;11.45;;
73397;SDS011;63606;52.328;20.964;2022-10-17T11:15:20;24.83;;;12.95;;
73397;SDS011;63606;52.328;20.964;2022-10-17T11:18:02;21.58;;;12.57;;
73397;SDS011;63606;52.328;20.964;2022-10-17T11:23:16;20.67;;;11.00;;
73397;SDS011;63606;52.328;20.964;2022-10-17T11:25:49;19.85;;;10.82;;
73397;SDS011;63606;52.328;20.964;2022-10-17T11:28:17;20.15;;;11.80;;
73397;SDS011;63606;52.328;20.964;2022-10-17T11:30:45;21.40;;;11.07;;
73397;SDS011;63606;52.328;20.964;2022-10-17T11:33:14;19.35;;;12.27;;
73397;SDS011;63606;52.328;20.964;2022-10-17T11:35:50;21.08;;;11.35;;
73397;SDS011;63606;52.328;20.964;2022-10-17T11:43:52;19.17;;;11.43;;
73397;SDS011;63606;52.328;20.964;2022-10-17T11:46:23;18.90;;;12.48;;
73397;SDS011;63606;52.328;20.964;2022-10-17T11:51:18;19.27;;;10.35;;
73397;SDS011;63606;52.328;20.964;2022-10-17T11:53:53;20.98;;;10.60;;
73397;SDS011;63606;52.328;20.964;2022-10-17T11:56:45;21.10;;;11.10;;
73397;SDS011;63606;52.328;20.964;2022-10-17T11:59:40;18.45;;;11.55;;
73397;SDS011;63606;52.328;20.964;2022-10-17T12:08:41;19.08;;;11.07;;
73397;SDS011;63606;52.328;20.964;2022-10-17T12:17:02;17.08;;;10.57;;
73397;SDS011;63606;52.328;20.964;2022-10-17T12:19:30;17.73;;;10.98;;
73397;SDS011;63606;52.328;20.964;2022-10-17T12:24:36;17.52;;;10.27;;
73397;SDS011;63606;52.328;20.964;2022-10-17T12:27:22;14.55;;;9.07;;
73397;SDS011;63606;52.328;20.964;2022-10-17T12:30:23;21.23;;;11.05;;
73397;SDS011;63606;52.328;20.964;2022-10-17T12:35:22;18.15;;;11.25;;
73397;SDS011;63606;52.328;20.964;2022-10-17T12:42:59;16.55;;;10.85;;
73397;SDS011;63606;52.328;20.964;2022-10-17T12:48:11;19.75;;;10.43;;
73397;SDS011;63606;52.328;20.964;2022-10-17T12:56:20;18.15;;;10.13;;
73397;SDS011;63606;52.328;20.964;2022-10-17T12:58:55;16.77;;;10.50;;
73397;SDS011;63606;52.328;20.964;2022-10-17T13:03:54;19.23;;;10.55;;
73397;SDS011;63606;52.328;20.964;2022-10-17T13:06:22;19.60;;;9.63;;
73397;SDS011;63606;52.328;20.964;2022-10-17T13:08:57;18.20;;;10.68;;
73397;SDS011;63606;52.328;20.964;2022-10-17T13:11:27;17.63;;;11.63;;
73397;SDS011;63606;52.328;20.964;2022-10-17T13:13:54;17.90;;;10.60;;
73397;SDS011;63606;52.328;20.964;2022-10-17T13:16:30;19.38;;;10.50;;
73397;SDS011;63606;52.328;20.964;2022-10-17T13:19:00;16.90;;;10.93;;
73397;SDS011;63606;52.328;20.964;2022-10-17T13:21:29;18.15;;;11.32;;
73397;SDS011;63606;52.328;20.964;2022-10-17T13:23:54;19.42;;;10.50;;
73397;SDS011;63606;52.328;20.964;2022-10-17T13:26:24;17.55;;;10.98;;
73397;SDS011;63606;52.328;20.964;2022-10-17T13:29:04;16.58;;;10.23;;
73397;SDS011;63606;52.328;20.964;2022-10-17T13:31:34;22.00;;;11.35;;
73397;SDS011;63606;52.328;20.964;2022-10-17T13:34:03;21.38;;;11.10;;
73397;SDS011;63606;52.328;20.964;2022-10-17T13:36:31;17.42;;;11.52;;
73397;SDS011;63606;52.328;20.964;2022-10-17T13:38:58;16.75;;;10.32;;
73397;SDS011;63606;52.328;20.964;2022-10-17T13:41:29;18.20;;;11.73;;
73397;SDS011;63606;52.328;20.964;2022-10-17T13:43:59;17.35;;;10.93;;
73397;SDS011;63606;52.328;20.964;2022-10-17T13:46:28;16.27;;;9.88;;
73397;SDS011;63606;52.328;20.964;2022-10-17T13:48:56;16.48;;;10.63;;
73397;SDS011;63606;52.328;20.964;2022-10-17T13:51:25;21.13;;;10.60;;
73397;SDS011;63606;52.328;20.964;2022-10-17T13:53:51;19.02;;;10.75;;
73397;SDS011;63606;52.328;20.964;2022-10-17T13:56:19;17.23;;;10.77;;
73397;SDS011;63606;52.328;20.964;2022-10-17T13:58:46;25.63;;;10.18;;
73397;SDS011;63606;52.328;20.964;2022-10-17T14:01:16;20.15;;;11.32;;
73397;SDS011;63606;52.328;20.964;2022-10-17T14:03:43;16.40;;;10.15;;
73397;SDS011;63606;52.328;20.964;2022-10-17T14:06:14;17.27;;;10.90;;
73397;SDS011;63606;52.328;20.964;2022-10-17T14:11:35;15.88;;;9.50;;
73397;SDS011;63606;52.328;20.964;2022-10-17T14:14:04;18.98;;;11.10;;
73397;SDS011;63606;52.328;20.964;2022-10-17T14:16:33;16.73;;;10.63;;
73397;SDS011;63606;52.328;20.964;2022-10-17T14:19:01;20.45;;;10.55;;
73397;SDS011;63606;52.328;20.964;2022-10-17T14:21:28;16.30;;;10.70;;
73397;SDS011;63606;52.328;20.964;2022-10-17T14:24:14;17.13;;;10.00;;
73397;SDS011;63606;52.328;20.964;2022-10-17T14:26:57;17.17;;;10.57;;
73397;SDS011;63606;52.328;20.964;2022-10-17T14:29:28;19.42;;;11.00;;
73397;SDS011;63606;52.328;20.964;2022-10-17T14:31:59;18.38;;;10.00;;
73397;SDS011;63606;52.328;20.964;2022-10-17T14:34:29;18.88;;;10.88;;
73397;SDS011;63606;52.328;20.964;2022-10-17T14:36:58;19.77;;;11.05;;
73397;SDS011;63606;52.328;20.964;2022-10-17T14:39:24;21.48;;;9.80;;
73397;SDS011;63606;52.328;20.964;2022-10-17T14:41:51;20.05;;;11.05;;
73397;SDS011;63606;52.328;20.964;2022-10-17T14:44:19;17.63;;;10.70;;
73397;SDS011;63606;52.328;20.964;2022-10-17T14:46:49;18.55;;;10.32;;
73397;SDS011;63606;52.328;20.964;2022-10-17T14:49:30;20.08;;;10.50;;
73397;SDS011;63606;52.328;20.964;2022-10-17T14:52:19;20.80;;;10.57;;
73397;SDS011;63606;52.328;20.964;2022-10-17T14:54:49;19.15;;;10.93;;
73397;SDS011;63606;52.328;20.964;2022-10-17T14:57:17;19.77;;;11.52;;
73397;SDS011;63606;52.328;20.964;2022-10-17T14:59:54;17.98;;;9.80;;
73397;SDS011;63606;52.328;20.964;2022-10-17T15:02:24;19.77;;;11.63;;
73397;SDS011;63606;52.328;20.964;2022-10-17T15:04:51;19.77;;;11.20;;
73397;SDS011;63606;52.328;20.964;2022-10-17T15:07:18;21.08;;;11.73;;
73397;SDS011;63606;52.328;20.964;2022-10-17T15:09:47;21.63;;;11.77;;
73397;SDS011;63606;52.328;20.964;2022-10-17T15:12:14;20.25;;;12.38;;
73397;SDS011;63606;52.328;20.964;2022-10-17T15:14:42;18.92;;;12.07;;
73397;SDS011;63606;52.328;20.964;2022-10-17T15:17:12;21.73;;;11.98;;
73397;SDS011;63606;52.328;20.964;2022-10-17T15:19:45;21.70;;;13.05;;
73397;SDS011;63606;52.328;20.964;2022-10-17T15:22:11;19.85;;;12.60;;
73397;SDS011;63606;52.328;20.964;2022-10-17T15:24:37;22.25;;;11.90;;
73397;SDS011;63606;52.328;20.964;2022-10-17T15:27:05;17.13;;;11.40;;
73397;SDS011;63606;52.328;20.964;2022-10-17T15:29:37;20.20;;;12.57;;
73397;SDS011;63606;52.328;20.964;2022-10-17T15:32:03;18.85;;;11.57;;
73397;SDS011;63606;52.328;20.964;2022-10-17T15:34:28;18.55;;;11.27;;
73397;SDS011;63606;52.328;20.964;2022-10-17T15:36:54;15.68;;;11.02;;
73397;SDS011;63606;52.328;20.964;2022-10-17T15:39:20;19.23;;;11.38;;
73397;SDS011;63606;52.328;20.964;2022-10-17T15:41:45;26.00;;;12.00;;
73397;SDS011;63606;52.328;20.964;2022-10-17T15:44:12;25.73;;;12.60;;
73397;SDS011;63606;52.328;20.964;2022-10-17T15:46:38;17.67;;;11.20;;
73397;SDS011;63606;52.328;20.964;2022-10-17T15:49:06;19.83;;;10.32;;
73397;SDS011;63606;52.328;20.964;2022-10-17T15:51:36;20.27;;;10.88;;
73397;SDS011;63606;52.328;20.964;2022-10-17T15:54:02;22.33;;;12.48;;
73397;SDS011;63606;52.328;20.964;2022-10-17T15:56:39;18.98;;;10.70;;
73397;SDS011;63606;52.328;20.964;2022-10-17T15:59:16;17.73;;;10.73;;
73397;SDS011;63606;52.328;20.964;2022-10-17T16:01:44;18.30;;;10.82;;
73397;SDS011;63606;52.328;20.964;2022-10-17T16:04:10;16.95;;;10.43;;
73397;SDS011;63606;52.328;20.964;2022-10-17T16:06:39;23.73;;;10.48;;
73397;SDS011;63606;52.328;20.964;2022-10-17T16:09:05;17.52;;;11.15;;
73397;SDS011;63606;52.328;20.964;2022-10-17T16:11:31;20.52;;;12.55;;
73397;SDS011;63606;52.328;20.964;2022-10-17T16:14:02;20.27;;;10.95;;
73397;SDS011;63606;52.328;20.964;2022-10-17T16:16:29;17.58;;;11.20;;
73397;SDS011;63606;52.328;20.964;2022-10-17T16:18:55;20.48;;;10.77;;
73397;SDS011;63606;52.328;20.964;2022-10-17T16:21:21;19.45;;;10.77;;
73397;SDS011;63606;52.328;20.964;2022-10-17T16:23:49;24.33;;;11.18;;
73397;SDS011;63606;52.328;20.964;2022-10-17T16:26:15;19.95;;;11.15;;
73397;SDS011;63606;52.328;20.964;2022-10-17T16:28:42;17.52;;;10.68;;